createdAt,value
2022-12-25T00:02:07.041Z,89.25
2022-12-25T00:04:35.211Z,89.24
2022-12-25T00:07:04.705Z,89.24
2022-12-25T00:09:32.903Z,89.22
2022-12-25T00:12:01.168Z,89.21
2022-12-25T00:14:29.326Z,89.19
2022-12-25T00:16:57.605Z,89.17
2022-12-25T00:19:25.770Z,89.15
2022-12-25T00:21:56.892Z,89.10
2022-12-25T00:24:24.885Z,88.97
2022-12-25T00:26:53.080Z,88.88
2022-12-25T00:29:21.256Z,88.74
2022-12-25T00:31:50.834Z,88.65
2022-12-25T00:34:19.645Z,88.63
2022-12-25T00:36:51.793Z,88.65
2022-12-25T00:39:20.017Z,88.64
2022-12-25T00:42:06.674Z,88.58
2022-12-25T00:44:35.927Z,88.60
2022-12-25T00:47:07.180Z,88.60
2022-12-25T00:49:35.460Z,88.60
2022-12-25T00:52:08.140Z,88.63
2022-12-25T00:54:39.310Z,88.63
2022-12-25T00:57:07.525Z,88.62
2022-12-25T00:59:37.205Z,88.62
2022-12-25T01:02:23.445Z,88.56
2022-12-25T01:04:59.032Z,88.50
2022-12-25T01:07:30.424Z,88.46
2022-12-25T01:10:17.427Z,88.44
2022-12-25T01:12:45.682Z,88.49
2022-12-25T01:15:15.252Z,88.47
2022-12-25T01:17:47.836Z,88.46
2022-12-25T01:20:18.469Z,88.44
2022-12-25T01:22:46.398Z,88.41
2022-12-25T01:25:17.711Z,88.45
2022-12-25T01:27:45.678Z,88.48
2022-12-25T01:30:16.367Z,88.54
2022-12-25T01:32:44.294Z,88.55
2022-12-25T01:35:12.226Z,88.54
2022-12-25T01:37:40.164Z,88.59
2022-12-25T01:40:11.475Z,88.60
2022-12-25T01:42:39.677Z,88.63
2022-12-25T01:45:44.950Z,88.61
2022-12-25T01:48:33.395Z,88.70
2022-12-25T01:51:29.566Z,88.65
2022-12-25T01:54:05.671Z,88.59
2022-12-25T01:56:38.380Z,88.71
2022-12-25T01:59:12.101Z,88.67
2022-12-25T02:01:43.337Z,88.65
2022-12-25T02:04:39.402Z,88.62
2022-12-25T02:07:13.963Z,88.60
2022-12-25T02:09:45.625Z,88.69
2022-12-25T02:12:22.147Z,88.70
2022-12-25T02:15:06.355Z,88.72
2022-12-25T02:17:59.555Z,88.67
2022-12-25T02:20:48.615Z,88.76
2022-12-25T02:23:38.292Z,88.82
2022-12-25T02:26:22.159Z,88.81
2022-12-25T02:29:03.908Z,88.88
2022-12-25T02:31:49.210Z,88.83
2022-12-25T02:34:47.325Z,88.92
2022-12-25T02:37:34.333Z,88.92
2022-12-25T02:40:36.916Z,88.81
2022-12-25T02:43:49.814Z,88.83
2022-12-25T02:46:42.801Z,88.86
2022-12-25T02:49:45.432Z,88.83
2022-12-25T02:52:41.417Z,88.69
2022-12-25T02:55:43.141Z,88.59
2022-12-25T02:58:37.124Z,88.59
2022-12-25T03:01:34.565Z,88.55
2022-12-25T03:04:37.004Z,88.53
2022-12-25T03:07:23.686Z,88.51
2022-12-25T03:10:25.219Z,88.53
2022-12-25T03:13:20.226Z,88.51
2022-12-25T03:16:10.474Z,88.51
2022-12-25T03:18:41.968Z,88.50
2022-12-25T03:21:31.996Z,88.49
2022-12-25T03:24:21.380Z,88.48
2022-12-25T03:26:56.140Z,88.46
2022-12-25T03:29:51.129Z,88.44
2022-12-25T03:32:43.853Z,88.44
2022-12-25T03:35:45.509Z,88.46
2022-12-25T03:38:50.383Z,88.45
2022-12-25T03:42:18.833Z,88.44
2022-12-25T03:45:47.773Z,88.46
2022-12-25T03:48:41.660Z,88.52
2022-12-25T03:51:38.035Z,88.50
2022-12-25T03:54:29.496Z,88.50
2022-12-25T03:57:19.620Z,88.53
2022-12-25T04:00:06.439Z,88.50
2022-12-25T04:02:57.395Z,88.51
2022-12-25T04:05:48.196Z,88.50
2022-12-25T04:08:36.263Z,88.44
2022-12-25T04:11:23.072Z,88.40
2022-12-25T04:14:09.898Z,88.39
2022-12-25T04:16:58.173Z,88.36
2022-12-25T04:19:44.613Z,88.31
2022-12-25T04:22:31.333Z,88.30
2022-12-25T04:25:18.485Z,88.26
2022-12-25T04:28:06.774Z,88.20
2022-12-25T04:30:53.529Z,88.15
2022-12-25T04:33:43.550Z,88.08
2022-12-25T04:36:15.558Z,88.05
2022-12-25T04:38:46.628Z,88.01
2022-12-25T04:41:17.936Z,88.01
2022-12-25T04:43:46.132Z,88.01
2022-12-25T04:46:14.333Z,88.02
2022-12-25T04:48:43.839Z,88.03
2022-12-25T04:51:19.665Z,88.04
2022-12-25T04:53:52.254Z,88.05
2022-12-25T04:56:23.576Z,88.06
2022-12-25T04:58:51.841Z,88.07
2022-12-25T05:01:19.887Z,88.09
2022-12-25T05:03:51.911Z,88.09
2022-12-25T05:06:21.226Z,88.10
2022-12-25T05:08:49.177Z,88.11
2022-12-25T05:11:20.170Z,88.13
2022-12-25T05:13:51.339Z,88.15
2022-12-25T05:16:23.341Z,88.17
2022-12-25T05:18:54.746Z,88.19
2022-12-25T05:21:24.101Z,88.20
2022-12-25T05:23:55.606Z,88.21
2022-12-25T05:26:28.463Z,88.22
2022-12-25T05:28:56.719Z,88.24
2022-12-25T05:31:28.072Z,88.24
2022-12-25T05:33:56.321Z,88.27
2022-12-25T05:36:24.464Z,88.29
2022-12-25T05:38:52.366Z,88.29
2022-12-25T05:41:20.399Z,88.31
2022-12-25T05:43:48.532Z,88.33
2022-12-25T05:46:16.888Z,88.34
2022-12-25T05:48:45.955Z,88.36
2022-12-25T05:51:18.122Z,88.36
2022-12-25T05:53:46.320Z,88.37
2022-12-25T05:56:14.529Z,88.37
2022-12-25T05:58:42.702Z,88.39
2022-12-25T06:01:14.942Z,88.40
2022-12-25T06:03:47.244Z,88.40
2022-12-25T06:06:15.463Z,88.42
2022-12-25T06:08:45.348Z,88.45
2022-12-25T06:11:17.417Z,88.47
2022-12-25T06:13:52.980Z,88.49
2022-12-25T06:16:21.123Z,88.50
2022-12-25T06:18:55.155Z,88.56
2022-12-25T06:21:24.533Z,88.60
2022-12-25T06:23:52.853Z,88.61
2022-12-25T06:26:21.569Z,88.56
2022-12-25T06:28:56.141Z,88.54
2022-12-25T06:31:26.761Z,88.54
2022-12-25T06:33:55.357Z,88.53
2022-12-25T06:36:29.318Z,88.54
2022-12-25T06:39:03.157Z,88.54
2022-12-25T06:41:34.742Z,88.53
2022-12-25T06:44:03.033Z,88.53
2022-12-25T06:46:34.337Z,88.53
2022-12-25T06:49:02.564Z,88.55
2022-12-25T06:51:34.624Z,88.58
2022-12-25T06:54:06.190Z,88.59
2022-12-25T06:56:36.041Z,88.62
2022-12-25T06:59:08.716Z,88.64
2022-12-25T07:01:52.425Z,88.66
2022-12-25T07:04:43.053Z,88.67
2022-12-25T07:07:14.606Z,88.69
2022-12-25T07:09:45.581Z,88.70
2022-12-25T07:12:13.753Z,88.71
2022-12-25T07:14:41.800Z,88.72
2022-12-25T07:17:09.936Z,88.74
2022-12-25T07:19:44.604Z,88.77
2022-12-25T07:22:17.407Z,88.79
2022-12-25T07:24:45.645Z,88.78
2022-12-25T07:27:15.237Z,88.78
2022-12-25T07:29:44.631Z,88.77
2022-12-25T07:32:12.623Z,88.76
2022-12-25T07:34:43.864Z,88.75
2022-12-25T07:37:12.081Z,88.73
2022-12-25T07:39:43.903Z,88.72
2022-12-25T07:42:16.494Z,88.71
2022-12-25T07:44:50.544Z,88.70
2022-12-25T07:47:18.525Z,88.68
2022-12-25T07:49:46.442Z,88.67
2022-12-25T07:52:17.210Z,88.66
2022-12-25T07:54:47.063Z,88.65
2022-12-25T07:57:15.467Z,88.62
2022-12-25T07:59:43.783Z,88.61
2022-12-25T08:02:11.981Z,88.60
2022-12-25T08:04:40.277Z,88.58
2022-12-25T08:07:08.446Z,88.57
2022-12-25T08:09:37.297Z,88.56
2022-12-25T08:12:06.760Z,88.57
2022-12-25T08:14:34.687Z,88.58
2022-12-25T08:17:02.719Z,88.58
2022-12-25T08:19:36.064Z,88.57
2022-12-25T08:22:04.022Z,88.57
2022-12-25T08:24:31.975Z,88.56
2022-12-25T08:27:06.391Z,88.54
2022-12-25T08:29:34.385Z,88.53
2022-12-25T08:32:02.412Z,88.49
2022-12-25T08:34:30.441Z,88.47
2022-12-25T08:36:58.627Z,88.46
2022-12-25T08:39:28.127Z,88.44
2022-12-25T08:41:57.564Z,88.43
2022-12-25T08:44:25.541Z,88.40
2022-12-25T08:46:56.017Z,88.39
2022-12-25T08:49:29.113Z,88.39
2022-12-25T08:51:57.470Z,88.38
2022-12-25T08:54:25.652Z,88.39
2022-12-25T08:56:58.624Z,88.37
2022-12-25T08:59:31.476Z,88.34
2022-12-25T09:01:59.827Z,88.34
2022-12-25T09:04:33.612Z,88.31
2022-12-25T09:07:03.600Z,88.33
2022-12-25T09:09:31.617Z,88.32
2022-12-25T09:11:59.886Z,88.31
2022-12-25T09:14:31.016Z,88.31
2022-12-25T09:16:58.966Z,88.24
2022-12-25T09:19:27.366Z,88.22
2022-12-25T09:21:58.649Z,88.17
2022-12-25T09:24:30.052Z,88.12
2022-12-25T09:26:58.207Z,88.05
2022-12-25T09:29:26.137Z,88.00
2022-12-25T09:31:54.024Z,87.95
2022-12-25T09:34:22.378Z,87.83
2022-12-25T09:36:53.433Z,87.76
2022-12-25T09:39:24.583Z,87.69
2022-12-25T09:42:09.997Z,87.63
2022-12-25T09:44:44.988Z,87.60
2022-12-25T09:47:17.671Z,87.58
2022-12-25T09:50:12.316Z,87.51
2022-12-25T09:53:16.083Z,87.46
2022-12-25T09:56:14.447Z,87.38
2022-12-25T09:58:45.891Z,87.25
2022-12-25T10:01:31.912Z,87.15
2022-12-25T10:04:15.214Z,87.15
2022-12-25T10:07:20.156Z,87.12
2022-12-25T10:10:11.101Z,87.09
2022-12-25T10:12:54.076Z,87.02
2022-12-25T10:15:55.609Z,87.03
2022-12-25T10:18:35.191Z,86.91
2022-12-25T10:21:13.206Z,86.89
2022-12-25T10:24:02.904Z,86.92
2022-12-25T10:26:35.937Z,86.91
2022-12-25T10:29:19.529Z,86.82
2022-12-25T10:31:53.895Z,86.79
2022-12-25T10:34:25.627Z,86.84
2022-12-25T10:36:54.151Z,86.81
2022-12-25T10:39:26.879Z,86.80
2022-12-25T10:42:23.615Z,86.80
2022-12-25T10:44:59.573Z,86.78
2022-12-25T10:47:39.329Z,86.76
2022-12-25T10:50:34.022Z,86.70
2022-12-25T10:53:06.358Z,86.65
2022-12-25T10:55:34.443Z,86.63
2022-12-25T10:58:02.664Z,86.59
2022-12-25T11:00:35.599Z,86.52
2022-12-25T11:03:07.620Z,86.51
2022-12-25T11:05:39.530Z,86.59
2022-12-25T11:08:21.648Z,86.48
2022-12-25T11:10:55.634Z,86.34
2022-12-25T11:13:31.330Z,86.22
2022-12-25T11:16:09.556Z,86.15
2022-12-25T11:18:56.646Z,85.98
2022-12-25T11:21:37.211Z,85.99
2022-12-25T11:24:17.782Z,86.17
2022-12-25T11:26:52.515Z,86.19
2022-12-25T11:29:29.899Z,86.10
2022-12-25T11:32:04.197Z,86.13
2022-12-25T11:34:45.588Z,86.08
2022-12-25T11:37:40.371Z,86.15
2022-12-25T11:40:26.703Z,86.03
2022-12-25T11:43:12.417Z,86.10
2022-12-25T11:45:57.211Z,86.09
2022-12-25T11:48:46.878Z,86.11
2022-12-25T11:51:20.035Z,86.09
2022-12-25T11:54:04.220Z,86.03
2022-12-25T11:56:37.120Z,86.07
2022-12-25T11:59:40.979Z,86.11
2022-12-25T12:02:29.274Z,86.04
2022-12-25T12:05:18.797Z,86.01
2022-12-25T12:08:03.448Z,86.00
2022-12-25T12:11:16.467Z,86.04
2022-12-25T12:14:35.049Z,86.00
2022-12-25T12:17:10.088Z,85.97
2022-12-25T12:19:40.563Z,85.93
2022-12-25T12:22:19.416Z,85.88
2022-12-25T12:24:57.864Z,85.83
2022-12-25T12:27:40.777Z,85.84
2022-12-25T12:30:34.819Z,85.79
2022-12-25T12:33:08.032Z,85.74
2022-12-25T12:35:41.903Z,85.69
2022-12-25T12:38:20.773Z,85.59
2022-12-25T12:41:07.289Z,85.55
2022-12-25T12:43:43.212Z,85.47
2022-12-25T12:46:31.298Z,85.39
2022-12-25T12:49:22.571Z,85.27
2022-12-25T12:51:51.230Z,85.19
2022-12-25T12:54:24.214Z,85.11
2022-12-25T12:57:08.398Z,84.97
2022-12-25T12:59:47.016Z,84.59
2022-12-25T13:02:53.216Z,84.51
2022-12-25T13:05:48.248Z,84.48
2022-12-25T13:09:05.836Z,84.28
2022-12-25T13:11:47.807Z,84.11
2022-12-25T13:14:21.455Z,84.25
2022-12-25T13:16:55.249Z,84.10
2022-12-25T13:19:29.453Z,83.93
2022-12-25T13:22:07.128Z,83.66
2022-12-25T13:24:39.475Z,83.30
2022-12-25T13:27:36.712Z,83.33
2022-12-25T13:30:19.786Z,83.33
2022-12-25T13:32:50.997Z,83.17
2022-12-25T13:35:24.029Z,83.07
2022-12-25T13:37:56.200Z,83.03
2022-12-25T13:40:30.101Z,83.08
2022-12-25T13:43:02.642Z,83.12
2022-12-25T13:45:34.560Z,83.20
2022-12-25T13:48:16.682Z,83.22
2022-12-25T13:50:51.846Z,83.25
2022-12-25T13:53:19.800Z,83.26
2022-12-25T13:55:54.915Z,83.26
2022-12-25T13:58:33.759Z,83.25
2022-12-25T14:01:04.637Z,83.27
2022-12-25T14:03:38.147Z,83.31
2022-12-25T14:06:21.045Z,83.35
2022-12-25T14:08:54.776Z,83.35
2022-12-25T14:11:27.663Z,83.37
2022-12-25T14:14:06.564Z,83.37
2022-12-25T14:16:35.966Z,83.25
2022-12-25T14:19:04.275Z,83.22
2022-12-25T19:02:25.386Z,87.63
2022-12-25T19:04:58.152Z,87.44
2022-12-25T19:07:26.717Z,87.51
2022-12-25T19:09:54.884Z,87.51
2022-12-25T19:12:27.039Z,87.56
2022-12-25T19:14:57.706Z,87.74
2022-12-25T19:17:31.617Z,87.96
2022-12-25T19:20:08.658Z,88.04
2022-12-25T19:22:36.857Z,87.94
2022-12-25T19:25:09.185Z,87.87
2022-12-25T19:27:37.176Z,87.95
2022-12-25T19:30:09.771Z,88.08
2022-12-25T19:32:38.549Z,88.14
2022-12-25T19:35:10.339Z,88.19
2022-12-25T19:37:38.631Z,88.18
2022-12-25T19:40:11.368Z,88.08
2022-12-25T19:42:39.788Z,87.99
2022-12-25T19:45:12.179Z,87.98
2022-12-25T19:47:45.792Z,87.93
2022-12-25T19:50:14.015Z,87.85
2022-12-25T19:52:45.089Z,87.86
2022-12-25T19:55:13.885Z,87.89
2022-12-25T19:57:42.016Z,87.90
2022-12-25T20:00:14.575Z,87.91
2022-12-25T20:02:42.802Z,87.92
2022-12-25T20:05:15.976Z,87.92
2022-12-25T20:07:48.322Z,87.91
2022-12-25T20:10:16.521Z,87.90
2022-12-25T20:12:48.921Z,87.92
2022-12-25T20:15:21.070Z,87.92
2022-12-25T20:17:49.148Z,87.93
2022-12-25T20:20:20.254Z,87.93
2022-12-25T20:22:48.465Z,87.90
2022-12-25T20:25:16.646Z,87.94
2022-12-25T20:27:44.886Z,87.99
2022-12-25T20:30:15.192Z,88.03
2022-12-25T20:32:49.758Z,88.06
2022-12-25T20:35:19.273Z,88.02
2022-12-25T20:37:47.214Z,88.07
2022-12-25T20:40:17.595Z,88.07
2022-12-25T20:42:50.725Z,88.02
2022-12-25T20:45:18.962Z,88.08
2022-12-25T20:47:47.116Z,88.07
2022-12-25T20:50:16.093Z,88.08
2022-12-25T20:52:44.296Z,88.24
2022-12-25T20:55:14.749Z,88.27
2022-12-25T20:57:46.039Z,88.20
2022-12-25T21:00:16.305Z,88.37
2022-12-25T21:02:44.731Z,88.27
2022-12-25T21:05:18.939Z,88.24
2022-12-25T21:07:46.886Z,88.23
2022-12-25T21:10:14.851Z,88.28
2022-12-25T21:12:42.999Z,88.28
2022-12-25T21:15:15.814Z,88.26
2022-12-25T21:17:44.264Z,88.19
2022-12-25T21:20:12.482Z,88.16
2022-12-25T21:22:40.760Z,88.17
2022-12-25T21:25:11.673Z,88.18
2022-12-25T21:27:39.852Z,88.20
2022-12-25T21:30:15.387Z,88.24
2022-12-25T21:33:03.686Z,88.29
2022-12-25T21:35:40.682Z,88.31
2022-12-25T21:38:08.637Z,88.36
2022-12-25T21:40:41.568Z,88.42
2022-12-25T21:43:14.696Z,88.49
2022-12-25T21:45:42.923Z,88.49
2022-12-25T21:48:10.844Z,88.50
2022-12-25T21:50:59.394Z,88.58
2022-12-25T21:53:27.569Z,88.61
2022-12-25T21:56:14.821Z,88.61
2022-12-25T21:58:44.404Z,88.62
2022-12-25T22:01:17.858Z,88.64
2022-12-25T22:03:49.020Z,88.61
2022-12-25T22:06:35.851Z,88.60
2022-12-25T22:09:10.120Z,88.57
2022-12-25T22:11:56.897Z,88.58
2022-12-25T22:14:55.772Z,88.55
2022-12-25T22:18:01.492Z,88.55
2022-12-25T22:20:38.453Z,88.54
2022-12-25T22:23:06.442Z,88.60
2022-12-25T22:25:34.396Z,88.61
2022-12-25T22:28:02.415Z,88.63
2022-12-25T22:30:30.605Z,88.64
2022-12-25T22:32:59.245Z,88.71
2022-12-25T22:35:27.453Z,88.66
2022-12-25T22:38:00.424Z,88.62
2022-12-25T22:40:32.952Z,88.60
2022-12-25T22:43:00.903Z,88.58
2022-12-25T22:45:29.068Z,88.63
2022-12-25T22:47:57.062Z,88.62
2022-12-25T22:50:25.326Z,88.64
2022-12-25T22:52:55.028Z,88.63
2022-12-25T22:55:23.044Z,88.64
2022-12-25T22:57:56.103Z,88.66
2022-12-25T23:00:24.251Z,88.65
2022-12-25T23:02:56.607Z,88.65
2022-12-25T23:05:25.043Z,88.57
2022-12-25T23:07:53.016Z,88.53
2022-12-25T23:10:21.188Z,88.51
2022-12-25T23:13:08.263Z,88.45
2022-12-25T23:15:36.643Z,88.39
2022-12-25T23:18:25.020Z,88.27
2022-12-25T23:21:16.476Z,88.23
2022-12-25T23:24:03.875Z,88.14
2022-12-25T23:26:32.663Z,88.07
2022-12-25T23:29:19.216Z,88.02
2022-12-25T23:31:53.718Z,87.95
2022-12-25T23:34:26.788Z,87.87
2022-12-25T23:36:54.772Z,87.81
2022-12-25T23:39:22.722Z,87.74
2022-12-25T23:42:00.180Z,87.66
2022-12-25T23:44:31.436Z,87.59
2022-12-25T23:47:01.881Z,87.55
2022-12-25T23:49:30.717Z,87.49
2022-12-25T23:52:00.225Z,87.40
2022-12-25T23:54:34.161Z,87.32
2022-12-25T23:57:01.987Z,87.21
2022-12-25T23:59:33.648Z,87.14
